sensor_id;sensor_type;location;lat;lon;timestamp;P1;durP1;ratioP1;P2;durP2;ratioP2
66609;SDS011;53468;48.276;14.416;2023-07-13T00:08:18;56.72;;;54.10;;
66609;SDS011;53468;48.276;14.416;2023-07-13T00:13:49;74.22;;;70.55;;
66609;SDS011;53468;48.276;14.416;2023-07-13T00:19:14;70.30;;;67.35;;
66609;SDS011;53468;48.276;14.416;2023-07-13T00:36:42;61.05;;;58.38;;
66609;SDS011;53468;48.276;14.416;2023-07-13T00:42:48;39.72;;;37.83;;
66609;SDS011;53468;48.276;14.416;2023-07-13T00:48:33;31.90;;;29.45;;
66609;SDS011;53468;48.276;14.416;2023-07-13T00:53:56;29.20;;;27.35;;
66609;SDS011;53468;48.276;14.416;2023-07-13T01:05:33;39.50;;;37.33;;
66609;SDS011;53468;48.276;14.416;2023-07-13T01:10:59;21.50;;;20.02;;
66609;SDS011;53468;48.276;14.416;2023-07-13T01:16:41;14.93;;;13.35;;
66609;SDS011;53468;48.276;14.416;2023-07-13T01:40:06;26.58;;;25.13;;
66609;SDS011;53468;48.276;14.416;2023-07-13T01:46:06;21.63;;;20.42;;
66609;SDS011;53468;48.276;14.416;2023-07-13T01:51:30;17.27;;;15.82;;
66609;SDS011;53468;48.276;14.416;2023-07-13T02:02:42;14.13;;;11.82;;
66609;SDS011;53468;48.276;14.416;2023-07-13T02:08:17;11.30;;;9.27;;
66609;SDS011;53468;48.276;14.416;2023-07-13T02:25:57;12.13;;;8.00;;
66609;SDS011;53468;48.276;14.416;2023-07-13T02:31:54;11.38;;;7.18;;
66609;SDS011;53468;48.276;14.416;2023-07-13T02:37:15;8.55;;;7.18;;
66609;SDS011;53468;48.276;14.416;2023-07-13T02:49:21;11.40;;;6.00;;
66609;SDS011;53468;48.276;14.416;2023-07-13T02:55:11;13.07;;;6.07;;
66609;SDS011;53468;48.276;14.416;2023-07-13T03:12:19;8.68;;;5.07;;
66609;SDS011;53468;48.276;14.416;2023-07-13T03:30:37;8.63;;;5.35;;
66609;SDS011;53468;48.276;14.416;2023-07-13T04:12:21;13.30;;;6.43;;
66609;SDS011;53468;48.276;14.416;2023-07-13T04:18:19;11.38;;;5.93;;
66609;SDS011;53468;48.276;14.416;2023-07-13T04:24:00;11.43;;;5.68;;
66609;SDS011;53468;48.276;14.416;2023-07-13T05:42:27;9.85;;;7.53;;
66609;SDS011;53468;48.276;14.416;2023-07-13T05:48:17;14.57;;;8.95;;
66609;SDS011;53468;48.276;14.416;2023-07-13T05:54:29;14.52;;;10.38;;
66609;SDS011;53468;48.276;14.416;2023-07-13T06:06:29;17.85;;;10.70;;
66609;SDS011;53468;48.276;14.416;2023-07-13T06:12:30;14.68;;;9.93;;
66609;SDS011;53468;48.276;14.416;2023-07-13T06:17:53;14.50;;;9.15;;
66609;SDS011;53468;48.276;14.416;2023-07-13T06:23:15;10.15;;;8.40;;
66609;SDS011;53468;48.276;14.416;2023-07-13T06:28:36;10.60;;;8.43;;
66609;SDS011;53468;48.276;14.416;2023-07-13T06:34:33;9.65;;;8.45;;
66609;SDS011;53468;48.276;14.416;2023-07-13T07:39:20;10.55;;;7.28;;
66609;SDS011;53468;48.276;14.416;2023-07-13T07:44:49;12.13;;;5.38;;
66609;SDS011;53468;48.276;14.416;2023-07-13T07:50:16;12.52;;;6.90;;
66609;SDS011;53468;48.276;14.416;2023-07-13T07:55:42;11.80;;;5.95;;
66609;SDS011;53468;48.276;14.416;2023-07-13T08:01:08;9.60;;;5.25;;
66609;SDS011;53468;48.276;14.416;2023-07-13T08:06:13;11.27;;;6.47;;
66609;SDS011;53468;48.276;14.416;2023-07-13T08:11:17;10.23;;;5.78;;
66609;SDS011;53468;48.276;14.416;2023-07-13T08:16:19;9.27;;;6.35;;
66609;SDS011;53468;48.276;14.416;2023-07-13T08:21:21;9.40;;;5.40;;
66609;SDS011;53468;48.276;14.416;2023-07-13T08:26:25;5.90;;;5.30;;
66609;SDS011;53468;48.276;14.416;2023-07-13T08:31:29;8.00;;;5.18;;
66609;SDS011;53468;48.276;14.416;2023-07-13T08:36:33;6.47;;;4.43;;
66609;SDS011;53468;48.276;14.416;2023-07-13T08:41:39;5.30;;;4.85;;
66609;SDS011;53468;48.276;14.416;2023-07-13T08:46:46;7.70;;;6.60;;
66609;SDS011;53468;48.276;14.416;2023-07-13T08:52:04;7.72;;;6.57;;
66609;SDS011;53468;48.276;14.416;2023-07-13T08:57:17;6.32;;;5.47;;
66609;SDS011;53468;48.276;14.416;2023-07-13T09:02:23;6.00;;;4.35;;
66609;SDS011;53468;48.276;14.416;2023-07-13T09:07:31;6.20;;;5.60;;
66609;SDS011;53468;48.276;14.416;2023-07-13T09:12:48;7.80;;;4.80;;
66609;SDS011;53468;48.276;14.416;2023-07-13T09:18:00;6.78;;;4.72;;
66609;SDS011;53468;48.276;14.416;2023-07-13T09:23:07;7.50;;;5.25;;
66609;SDS011;53468;48.276;14.416;2023-07-13T09:28:17;10.60;;;5.00;;
66609;SDS011;53468;48.276;14.416;2023-07-13T09:33:22;9.75;;;4.38;;
66609;SDS011;53468;48.276;14.416;2023-07-13T09:38:26;6.55;;;5.40;;
66609;SDS011;53468;48.276;14.416;2023-07-13T09:43:31;5.20;;;4.70;;
66609;SDS011;53468;48.276;14.416;2023-07-13T09:48:35;5.45;;;4.63;;
66609;SDS011;53468;48.276;14.416;2023-07-13T09:53:38;6.82;;;4.45;;
66609;SDS011;53468;48.276;14.416;2023-07-13T09:58:47;6.00;;;4.80;;
66609;SDS011;53468;48.276;14.416;2023-07-13T10:03:54;8.45;;;3.88;;
66609;SDS011;53468;48.276;14.416;2023-07-13T10:09:01;4.53;;;3.20;;
66609;SDS011;53468;48.276;14.416;2023-07-13T10:14:18;3.58;;;3.28;;
66609;SDS011;53468;48.276;14.416;2023-07-13T10:19:26;6.78;;;4.95;;
66609;SDS011;53468;48.276;14.416;2023-07-13T10:24:33;5.45;;;4.32;;
66609;SDS011;53468;48.276;14.416;2023-07-13T10:29:42;7.22;;;4.55;;
66609;SDS011;53468;48.276;14.416;2023-07-13T10:34:50;6.18;;;4.15;;
66609;SDS011;53468;48.276;14.416;2023-07-13T10:39:55;4.85;;;4.30;;
66609;SDS011;53468;48.276;14.416;2023-07-13T10:45:01;5.18;;;4.20;;
66609;SDS011;53468;48.276;14.416;2023-07-13T10:50:08;5.85;;;3.80;;
66609;SDS011;53468;48.276;14.416;2023-07-13T10:55:34;8.35;;;4.53;;
66609;SDS011;53468;48.276;14.416;2023-07-13T11:00:46;4.88;;;4.38;;
66609;SDS011;53468;48.276;14.416;2023-07-13T11:06:03;4.82;;;4.22;;
66609;SDS011;53468;48.276;14.416;2023-07-13T11:16:46;5.43;;;3.20;;
66609;SDS011;53468;48.276;14.416;2023-07-13T11:22:02;8.52;;;3.60;;
66609;SDS011;53468;48.276;14.416;2023-07-13T11:27:19;4.40;;;3.03;;
66609;SDS011;53468;48.276;14.416;2023-07-13T11:32:29;4.95;;;3.78;;
66609;SDS011;53468;48.276;14.416;2023-07-13T11:37:32;5.32;;;4.18;;
66609;SDS011;53468;48.276;14.416;2023-07-13T11:42:34;5.90;;;3.55;;
66609;SDS011;53468;48.276;14.416;2023-07-13T11:47:42;7.90;;;3.33;;
66609;SDS011;53468;48.276;14.416;2023-07-13T11:52:44;5.32;;;2.90;;
66609;SDS011;53468;48.276;14.416;2023-07-13T11:57:48;5.53;;;3.38;;
66609;SDS011;53468;48.276;14.416;2023-07-13T12:02:55;4.30;;;3.30;;
66609;SDS011;53468;48.276;14.416;2023-07-13T12:08:08;4.53;;;3.05;;
66609;SDS011;53468;48.276;14.416;2023-07-13T12:13:12;5.95;;;3.00;;
66609;SDS011;53468;48.276;14.416;2023-07-13T12:18:18;6.10;;;2.88;;
66609;SDS011;53468;48.276;14.416;2023-07-13T12:29:17;5.38;;;2.58;;
66609;SDS011;53468;48.276;14.416;2023-07-13T12:34:22;5.50;;;2.22;;
66609;SDS011;53468;48.276;14.416;2023-07-13T12:39:28;3.03;;;2.03;;
66609;SDS011;53468;48.276;14.416;2023-07-13T12:44:35;6.72;;;2.75;;
66609;SDS011;53468;48.276;14.416;2023-07-13T12:49:47;3.55;;;2.10;;
66609;SDS011;53468;48.276;14.416;2023-07-13T12:54:54;4.03;;;2.70;;
66609;SDS011;53468;48.276;14.416;2023-07-13T12:59:58;5.45;;;2.38;;
66609;SDS011;53468;48.276;14.416;2023-07-13T13:05:13;7.80;;;2.80;;
66609;SDS011;53468;48.276;14.416;2023-07-13T13:10:19;3.85;;;2.33;;
66609;SDS011;53468;48.276;14.416;2023-07-13T13:15:24;4.20;;;2.45;;
66609;SDS011;53468;48.276;14.416;2023-07-13T13:20:32;3.65;;;2.58;;
66609;SDS011;53468;48.276;14.416;2023-07-13T13:25:36;5.00;;;2.33;;
66609;SDS011;53468;48.276;14.416;2023-07-13T13:30:40;2.83;;;2.03;;
66609;SDS011;53468;48.276;14.416;2023-07-13T13:35:48;5.50;;;2.88;;
66609;SDS011;53468;48.276;14.416;2023-07-13T13:40:51;8.15;;;2.83;;
66609;SDS011;53468;48.276;14.416;2023-07-13T13:45:56;7.50;;;3.17;;
66609;SDS011;53468;48.276;14.416;2023-07-13T13:51:09;5.63;;;2.58;;
66609;SDS011;53468;48.276;14.416;2023-07-13T13:56:19;6.13;;;2.47;;
66609;SDS011;53468;48.276;14.416;2023-07-13T14:01:22;4.53;;;2.45;;
66609;SDS011;53468;48.276;14.416;2023-07-13T14:06:28;5.03;;;2.60;;
66609;SDS011;53468;48.276;14.416;2023-07-13T14:11:31;7.20;;;2.65;;
66609;SDS011;53468;48.276;14.416;2023-07-13T14:16:34;6.85;;;2.45;;
66609;SDS011;53468;48.276;14.416;2023-07-13T14:21:39;3.92;;;2.20;;
66609;SDS011;53468;48.276;14.416;2023-07-13T14:26:42;5.82;;;2.38;;
66609;SDS011;53468;48.276;14.416;2023-07-13T14:31:46;3.78;;;2.53;;
66609;SDS011;53468;48.276;14.416;2023-07-13T14:36:51;3.63;;;1.95;;
66609;SDS011;53468;48.276;14.416;2023-07-13T14:41:56;3.72;;;1.65;;
66609;SDS011;53468;48.276;14.416;2023-07-13T14:47:23;2.65;;;1.75;;
66609;SDS011;53468;48.276;14.416;2023-07-13T14:52:28;4.43;;;2.22;;
66609;SDS011;53468;48.276;14.416;2023-07-13T14:57:30;6.63;;;2.35;;
66609;SDS011;53468;48.276;14.416;2023-07-13T15:02:34;4.82;;;2.22;;
66609;SDS011;53468;48.276;14.416;2023-07-13T15:07:41;4.43;;;2.05;;
66609;SDS011;53468;48.276;14.416;2023-07-13T15:12:44;4.00;;;1.83;;
66609;SDS011;53468;48.276;14.416;2023-07-13T15:17:47;3.33;;;1.90;;
66609;SDS011;53468;48.276;14.416;2023-07-13T15:22:59;5.97;;;2.00;;
66609;SDS011;53468;48.276;14.416;2023-07-13T15:28:04;4.43;;;1.88;;
66609;SDS011;53468;48.276;14.416;2023-07-13T15:33:10;5.03;;;2.00;;
66609;SDS011;53468;48.276;14.416;2023-07-13T15:38:23;2.78;;;1.85;;
66609;SDS011;53468;48.276;14.416;2023-07-13T15:43:34;2.65;;;1.55;;
66609;SDS011;53468;48.276;14.416;2023-07-13T15:48:38;3.53;;;1.80;;
66609;SDS011;53468;48.276;14.416;2023-07-13T15:53:43;2.47;;;1.52;;
66609;SDS011;53468;48.276;14.416;2023-07-13T15:58:50;4.57;;;1.88;;
66609;SDS011;53468;48.276;14.416;2023-07-13T16:03:55;2.03;;;1.33;;
66609;SDS011;53468;48.276;14.416;2023-07-13T16:09:02;3.42;;;1.88;;
66609;SDS011;53468;48.276;14.416;2023-07-13T16:14:06;2.92;;;1.63;;
66609;SDS011;53468;48.276;14.416;2023-07-13T16:19:13;2.88;;;1.55;;
66609;SDS011;53468;48.276;14.416;2023-07-13T16:24:20;6.85;;;1.77;;
66609;SDS011;53468;48.276;14.416;2023-07-13T16:29:26;4.72;;;1.63;;
66609;SDS011;53468;48.276;14.416;2023-07-13T16:34:30;3.22;;;1.50;;
66609;SDS011;53468;48.276;14.416;2023-07-13T16:39:35;3.60;;;1.77;;
66609;SDS011;53468;48.276;14.416;2023-07-13T16:44:39;3.42;;;1.65;;
66609;SDS011;53468;48.276;14.416;2023-07-13T16:49:43;2.30;;;1.52;;
66609;SDS011;53468;48.276;14.416;2023-07-13T16:54:48;2.28;;;1.13;;
66609;SDS011;53468;48.276;14.416;2023-07-13T16:59:56;2.15;;;1.40;;
66609;SDS011;53468;48.276;14.416;2023-07-13T17:05:02;5.60;;;1.83;;
66609;SDS011;53468;48.276;14.416;2023-07-13T17:15:26;3.80;;;1.42;;
66609;SDS011;53468;48.276;14.416;2023-07-13T17:20:34;2.88;;;1.42;;
66609;SDS011;53468;48.276;14.416;2023-07-13T17:25:47;2.40;;;1.38;;
66609;SDS011;53468;48.276;14.416;2023-07-13T17:30:52;3.13;;;1.83;;
66609;SDS011;53468;48.276;14.416;2023-07-13T17:35:58;3.83;;;1.98;;
66609;SDS011;53468;48.276;14.416;2023-07-13T17:41:03;5.47;;;2.00;;
66609;SDS011;53468;48.276;14.416;2023-07-13T17:51:16;4.90;;;1.48;;
66609;SDS011;53468;48.276;14.416;2023-07-13T17:56:24;2.85;;;1.65;;
66609;SDS011;53468;48.276;14.416;2023-07-13T18:01:28;5.22;;;1.75;;
66609;SDS011;53468;48.276;14.416;2023-07-13T18:06:34;7.38;;;1.80;;
66609;SDS011;53468;48.276;14.416;2023-07-13T18:11:42;6.32;;;2.17;;
66609;SDS011;53468;48.276;14.416;2023-07-13T18:16:50;7.63;;;2.22;;
66609;SDS011;53468;48.276;14.416;2023-07-13T18:21:55;3.97;;;1.83;;
66609;SDS011;53468;48.276;14.416;2023-07-13T18:27:03;4.22;;;1.95;;
66609;SDS011;53468;48.276;14.416;2023-07-13T18:32:09;4.20;;;2.33;;
66609;SDS011;53468;48.276;14.416;2023-07-13T18:37:29;1.67;;;1.40;;
66609;SDS011;53468;48.276;14.416;2023-07-13T18:42:39;2.30;;;1.50;;
66609;SDS011;53468;48.276;14.416;2023-07-13T18:47:46;3.88;;;2.20;;
66609;SDS011;53468;48.276;14.416;2023-07-13T18:52:59;7.15;;;2.05;;
66609;SDS011;53468;48.276;14.416;2023-07-13T18:58:12;4.10;;;1.90;;
66609;SDS011;53468;48.276;14.416;2023-07-13T19:03:34;3.05;;;1.75;;
66609;SDS011;53468;48.276;14.416;2023-07-13T19:08:56;3.38;;;1.80;;
66609;SDS011;53468;48.276;14.416;2023-07-13T19:20:11;5.45;;;2.30;;
66609;SDS011;53468;48.276;14.416;2023-07-13T19:25:46;5.60;;;1.95;;
66609;SDS011;53468;48.276;14.416;2023-07-13T20:42:12;3.78;;;2.28;;
66609;SDS011;53468;48.276;14.416;2023-07-13T20:48:18;3.85;;;2.50;;
66609;SDS011;53468;48.276;14.416;2023-07-13T21:24:43;5.63;;;3.08;;
66609;SDS011;53468;48.276;14.416;2023-07-13T21:55:05;5.95;;;2.38;;
66609;SDS011;53468;48.276;14.416;2023-07-13T23:08:07;6.50;;;3.45;;
66609;SDS011;53468;48.276;14.416;2023-07-13T23:14:01;5.63;;;2.75;;
66609;SDS011;53468;48.276;14.416;2023-07-13T23:26:13;7.70;;;3.22;;
66609;SDS011;53468;48.276;14.416;2023-07-13T23:44:25;6.65;;;3.90;;
66609;SDS011;53468;48.276;14.416;2023-07-13T23:50:28;5.60;;;3.92;;
